sensor_id;sensor_type;location;lat;lon;timestamp;pressure;altitude;pressure_sealevel;temperature;humidity
25526;BME280;13424;48.424;11.258;2022-07-26T00:00:11;95552.66;;;22.96;88.81
25526;BME280;13424;48.424;11.258;2022-07-26T00:02:41;95542.91;;;23.04;87.84
25526;BME280;13424;48.424;11.258;2022-07-26T00:05:09;95544.16;;;22.89;87.90
25526;BME280;13424;48.424;11.258;2022-07-26T00:07:35;95545.63;;;22.95;88.29
25526;BME280;13424;48.424;11.258;2022-07-26T00:10:01;95546.38;;;22.70;89.03
25526;BME280;13424;48.424;11.258;2022-07-26T00:12:27;95546.41;;;22.87;89.18
25526;BME280;13424;48.424;11.258;2022-07-26T00:14:53;95544.81;;;23.03;87.63
25526;BME280;13424;48.424;11.258;2022-07-26T00:17:19;95548.09;;;22.66;89.29
25526;BME280;13424;48.424;11.258;2022-07-26T00:19:46;95545.78;;;23.16;86.91
25526;BME280;13424;48.424;11.258;2022-07-26T00:22:11;95551.69;;;22.92;87.81
25526;BME280;13424;48.424;11.258;2022-07-26T00:24:56;95552.19;;;22.94;88.41
25526;BME280;13424;48.424;11.258;2022-07-26T00:27:22;95544.03;;;23.03;87.95
25526;BME280;13424;48.424;11.258;2022-07-26T00:29:48;95551.81;;;22.78;89.09
25526;BME280;13424;48.424;11.258;2022-07-26T00:32:14;95536.66;;;22.86;89.07
25526;BME280;13424;48.424;11.258;2022-07-26T00:34:40;95538.53;;;22.77;89.13
25526;BME280;13424;48.424;11.258;2022-07-26T00:37:06;95538.81;;;22.67;89.03
25526;BME280;13424;48.424;11.258;2022-07-26T00:39:32;95530.28;;;22.25;91.33
25526;BME280;13424;48.424;11.258;2022-07-26T00:41:58;95531.97;;;22.78;89.64
25526;BME280;13424;48.424;11.258;2022-07-26T00:44:24;95530.84;;;22.62;89.97
25526;BME280;13424;48.424;11.258;2022-07-26T00:46:50;95520.66;;;22.93;88.64
25526;BME280;13424;48.424;11.258;2022-07-26T00:49:16;95521.94;;;22.87;88.46
25526;BME280;13424;48.424;11.258;2022-07-26T00:51:42;95514.53;;;22.79;89.30
25526;BME280;13424;48.424;11.258;2022-07-26T00:54:08;95522.06;;;22.82;89.33
25526;BME280;13424;48.424;11.258;2022-07-26T00:56:34;95523.81;;;22.61;89.58
25526;BME280;13424;48.424;11.258;2022-07-26T00:59:00;95523.47;;;22.53;90.20
25526;BME280;13424;48.424;11.258;2022-07-26T01:01:26;95518.72;;;22.68;89.61
25526;BME280;13424;48.424;11.258;2022-07-26T01:03:53;95510.72;;;22.80;89.28
25526;BME280;13424;48.424;11.258;2022-07-26T01:06:20;95513.13;;;22.90;89.08
25526;BME280;13424;48.424;11.258;2022-07-26T01:08:48;95511.66;;;22.67;90.42
25526;BME280;13424;48.424;11.258;2022-07-26T01:11:16;95512.13;;;22.51;91.03
25526;BME280;13424;48.424;11.258;2022-07-26T01:13:49;95515.16;;;22.58;90.32
25526;BME280;13424;48.424;11.258;2022-07-26T01:17:08;95513.78;;;22.96;88.34
25526;BME280;13424;48.424;11.258;2022-07-26T01:19:34;95517.75;;;22.81;89.70
25526;BME280;13424;48.424;11.258;2022-07-26T01:22:00;95518.09;;;22.88;88.88
25526;BME280;13424;48.424;11.258;2022-07-26T01:24:26;95516.16;;;22.80;89.19
25526;BME280;13424;48.424;11.258;2022-07-26T01:26:52;95518.41;;;23.04;87.92
25526;BME280;13424;48.424;11.258;2022-07-26T01:29:21;95523.53;;;23.05;88.19
25526;BME280;13424;48.424;11.258;2022-07-26T01:31:48;95523.38;;;23.02;87.91
25526;BME280;13424;48.424;11.258;2022-07-26T01:34:14;95513.31;;;23.02;87.96
25526;BME280;13424;48.424;11.258;2022-07-26T01:36:41;95513.28;;;23.11;87.29
25526;BME280;13424;48.424;11.258;2022-07-26T01:39:29;95508.50;;;23.17;87.53
25526;BME280;13424;48.424;11.258;2022-07-26T01:41:55;95513.31;;;22.85;89.14
25526;BME280;13424;48.424;11.258;2022-07-26T01:44:22;95514.09;;;23.03;88.11
25526;BME280;13424;48.424;11.258;2022-07-26T01:46:49;95519.69;;;23.06;88.08
25526;BME280;13424;48.424;11.258;2022-07-26T01:49:15;95523.53;;;23.05;87.72
25526;BME280;13424;48.424;11.258;2022-07-26T01:51:41;95527.22;;;23.01;87.98
25526;BME280;13424;48.424;11.258;2022-07-26T01:54:08;95521.28;;;22.90;87.99
25526;BME280;13424;48.424;11.258;2022-07-26T01:56:34;95524.66;;;22.96;88.17
25526;BME280;13424;48.424;11.258;2022-07-26T02:03:02;95518.09;;;22.88;87.60
25526;BME280;13424;48.424;11.258;2022-07-26T02:05:28;95509.78;;;23.10;87.03
25526;BME280;13424;48.424;11.258;2022-07-26T02:07:55;95511.72;;;23.01;87.57
25526;BME280;13424;48.424;11.258;2022-07-26T02:10:21;95505.63;;;23.04;87.20
25526;BME280;13424;48.424;11.258;2022-07-26T02:12:48;95511.72;;;23.01;87.47
25526;BME280;13424;48.424;11.258;2022-07-26T02:15:16;95508.19;;;23.01;87.56
25526;BME280;13424;48.424;11.258;2022-07-26T02:17:42;95496.66;;;23.12;87.21
25526;BME280;13424;48.424;11.258;2022-07-26T02:20:09;95490.59;;;23.16;86.81
25526;BME280;13424;48.424;11.258;2022-07-26T02:22:35;95497.94;;;22.89;87.86
25526;BME280;13424;48.424;11.258;2022-07-26T02:25:01;95500.84;;;23.01;87.21
25526;BME280;13424;48.424;11.258;2022-07-26T02:27:27;95489.16;;;23.01;87.64
25526;BME280;13424;48.424;11.258;2022-07-26T02:29:53;95500.84;;;23.01;87.34
25526;BME280;13424;48.424;11.258;2022-07-26T02:32:19;95509.13;;;22.79;88.35
25526;BME280;13424;48.424;11.258;2022-07-26T02:34:45;95504.34;;;22.93;87.56
25526;BME280;13424;48.424;11.258;2022-07-26T02:37:11;95507.88;;;22.94;87.55
25526;BME280;13424;48.424;11.258;2022-07-26T02:39:37;95508.81;;;22.89;87.78
25526;BME280;13424;48.424;11.258;2022-07-26T02:42:05;95511.22;;;22.91;87.91
25526;BME280;13424;48.424;11.258;2022-07-26T02:44:32;95523.53;;;22.88;88.07
25526;BME280;13424;48.424;11.258;2022-07-26T02:46:59;95514.06;;;22.77;88.48
25526;BME280;13424;48.424;11.258;2022-07-26T02:49:25;95515.03;;;22.72;88.73
25526;BME280;13424;48.424;11.258;2022-07-26T02:51:51;95524.16;;;22.68;88.88
25526;BME280;13424;48.424;11.258;2022-07-26T02:54:17;95518.19;;;22.57;88.87
25526;BME280;13424;48.424;11.258;2022-07-26T02:56:43;95519.34;;;22.73;88.50
25526;BME280;13424;48.424;11.258;2022-07-26T02:59:09;95519.16;;;22.52;89.32
25526;BME280;13424;48.424;11.258;2022-07-26T03:01:36;95514.22;;;22.63;88.77
25526;BME280;13424;48.424;11.258;2022-07-26T03:04:04;95505.25;;;22.45;89.29
25526;BME280;13424;48.424;11.258;2022-07-26T03:06:32;95505.25;;;22.63;88.81
25526;BME280;13424;48.424;11.258;2022-07-26T03:08:59;95499.50;;;22.73;88.21
25526;BME280;13424;48.424;11.258;2022-07-26T03:11:25;95508.78;;;22.54;88.95
25526;BME280;13424;48.424;11.258;2022-07-26T03:13:52;95509.09;;;22.62;88.66
25526;BME280;13424;48.424;11.258;2022-07-26T03:16:18;95511.13;;;22.39;89.82
25526;BME280;13424;48.424;11.258;2022-07-26T03:18:45;95523.31;;;22.58;88.85
25526;BME280;13424;48.424;11.258;2022-07-26T03:21:11;95525.41;;;22.62;88.53
25526;BME280;13424;48.424;11.258;2022-07-26T03:23:37;95519.63;;;22.54;89.25
25526;BME280;13424;48.424;11.258;2022-07-26T03:26:05;95523.16;;;22.46;89.65
25526;BME280;13424;48.424;11.258;2022-07-26T03:28:34;95532.91;;;22.56;88.65
25526;BME280;13424;48.424;11.258;2022-07-26T03:31:00;95528.44;;;22.51;88.83
25526;BME280;13424;48.424;11.258;2022-07-26T03:33:28;95526.81;;;22.50;88.58
25526;BME280;13424;48.424;11.258;2022-07-26T03:35:54;95525.97;;;22.33;89.50
25526;BME280;13424;48.424;11.258;2022-07-26T03:38:21;95523.75;;;22.43;88.96
25526;BME280;13424;48.424;11.258;2022-07-26T03:40:47;95527.13;;;22.49;88.89
25526;BME280;13424;48.424;11.258;2022-07-26T03:43:13;95525.22;;;22.49;88.63
25526;BME280;13424;48.424;11.258;2022-07-26T03:45:39;95526.31;;;22.31;88.96
25526;BME280;13424;48.424;11.258;2022-07-26T03:48:06;95524.59;;;22.52;88.18
25526;BME280;13424;48.424;11.258;2022-07-26T03:50:32;95517.38;;;22.39;88.63
25526;BME280;13424;48.424;11.258;2022-07-26T03:52:58;95526.97;;;22.45;88.02
25526;BME280;13424;48.424;11.258;2022-07-26T03:55:24;95522.75;;;22.22;88.48
25526;BME280;13424;48.424;11.258;2022-07-26T03:58:08;95520.56;;;22.41;88.20
25526;BME280;13424;48.424;11.258;2022-07-26T04:00:34;95524.75;;;22.47;88.12
25526;BME280;13424;48.424;11.258;2022-07-26T04:03:00;95537.66;;;22.33;88.05
25526;BME280;13424;48.424;11.258;2022-07-26T04:05:26;95536.81;;;22.24;88.66
25526;BME280;13424;48.424;11.258;2022-07-26T04:07:52;95527.75;;;22.37;88.41
25526;BME280;13424;48.424;11.258;2022-07-26T04:10:19;95538.81;;;22.49;88.38
25526;BME280;13424;48.424;11.258;2022-07-26T04:12:45;95528.91;;;22.45;88.48
25526;BME280;13424;48.424;11.258;2022-07-26T04:15:11;95522.16;;;22.42;88.39
25526;BME280;13424;48.424;11.258;2022-07-26T04:17:39;95525.03;;;22.37;88.74
25526;BME280;13424;48.424;11.258;2022-07-26T04:20:08;95531.53;;;22.19;88.94
25526;BME280;13424;48.424;11.258;2022-07-26T04:22:36;95535.22;;;22.23;89.51
25526;BME280;13424;48.424;11.258;2022-07-26T04:25:05;95532.69;;;22.35;89.02
25526;BME280;13424;48.424;11.258;2022-07-26T04:27:32;95527.91;;;22.32;89.39
25526;BME280;13424;48.424;11.258;2022-07-26T04:31:11;95533.78;;;22.25;89.82
25526;BME280;13424;48.424;11.258;2022-07-26T04:33:37;95536.88;;;22.41;88.87
25526;BME280;13424;48.424;11.258;2022-07-26T04:36:03;95531.59;;;22.36;88.89
25526;BME280;13424;48.424;11.258;2022-07-26T04:38:30;95536.81;;;22.24;89.68
25526;BME280;13424;48.424;11.258;2022-07-26T04:40:56;95531.72;;;22.31;89.17
25526;BME280;13424;48.424;11.258;2022-07-26T04:43:23;95545.22;;;22.53;88.61
25526;BME280;13424;48.424;11.258;2022-07-26T04:45:50;95546.91;;;22.32;89.32
25526;BME280;13424;48.424;11.258;2022-07-26T04:48:17;95556.22;;;22.48;89.26
25526;BME280;13424;48.424;11.258;2022-07-26T04:50:43;95550.66;;;22.53;89.48
25526;BME280;13424;48.424;11.258;2022-07-26T04:53:09;95550.31;;;22.46;88.94
25526;BME280;13424;48.424;11.258;2022-07-26T04:55:39;95548.56;;;22.50;89.16
25526;BME280;13424;48.424;11.258;2022-07-26T04:58:05;95548.75;;;22.63;89.12
25526;BME280;13424;48.424;11.258;2022-07-26T05:04:35;95550.19;;;22.69;88.78
25526;BME280;13424;48.424;11.258;2022-07-26T05:07:01;95541.09;;;22.82;88.03
25526;BME280;13424;48.424;11.258;2022-07-26T05:09:28;95555.03;;;22.98;87.77
25526;BME280;13424;48.424;11.258;2022-07-26T05:11:54;95548.66;;;23.02;87.22
25526;BME280;13424;48.424;11.258;2022-07-26T05:14:20;95544.03;;;22.94;88.22
25526;BME280;13424;48.424;11.258;2022-07-26T05:16:47;95550.03;;;22.74;88.59
25526;BME280;13424;48.424;11.258;2022-07-26T05:19:13;95547.81;;;22.76;87.94
25526;BME280;13424;48.424;11.258;2022-07-26T05:21:54;95551.38;;;22.85;88.01
25526;BME280;13424;48.424;11.258;2022-07-26T05:24:20;95553.94;;;23.07;87.21
25526;BME280;13424;48.424;11.258;2022-07-26T05:26:46;95553.78;;;23.12;86.71
25526;BME280;13424;48.424;11.258;2022-07-26T05:29:13;95558.09;;;22.96;87.24
25526;BME280;13424;48.424;11.258;2022-07-26T05:31:39;95562.72;;;23.13;86.71
25526;BME280;13424;48.424;11.258;2022-07-26T05:34:05;95568.66;;;23.24;86.33
25526;BME280;13424;48.424;11.258;2022-07-26T05:36:33;95557.75;;;23.06;86.67
25526;BME280;13424;48.424;11.258;2022-07-26T05:38:59;95558.91;;;23.23;84.73
25526;BME280;13424;48.424;11.258;2022-07-26T05:41:25;95562.44;;;23.23;84.19
25526;BME280;13424;48.424;11.258;2022-07-26T05:43:51;95564.50;;;23.18;83.44
25526;BME280;13424;48.424;11.258;2022-07-26T05:46:17;95570.41;;;23.20;82.38
25526;BME280;13424;48.424;11.258;2022-07-26T05:48:44;95560.66;;;23.10;81.99
25526;BME280;13424;48.424;11.258;2022-07-26T05:51:10;95573.94;;;22.86;83.35
25526;BME280;13424;48.424;11.258;2022-07-26T05:53:37;95572.47;;;22.88;82.11
25526;BME280;13424;48.424;11.258;2022-07-26T05:56:04;95568.78;;;22.84;81.71
25526;BME280;13424;48.424;11.258;2022-07-26T05:58:30;95570.81;;;22.70;81.86
25526;BME280;13424;48.424;11.258;2022-07-26T06:00:57;95566.72;;;22.98;80.84
25526;BME280;13424;48.424;11.258;2022-07-26T06:03:23;95565.16;;;23.15;79.81
25526;BME280;13424;48.424;11.258;2022-07-26T06:05:55;95571.88;;;23.08;79.70
25526;BME280;13424;48.424;11.258;2022-07-26T06:08:24;95573.13;;;23.37;78.51
25526;BME280;13424;48.424;11.258;2022-07-26T06:10:52;95567.88;;;23.32;79.77
25526;BME280;13424;48.424;11.258;2022-07-26T06:13:18;95577.13;;;23.22;81.30
25526;BME280;13424;48.424;11.258;2022-07-26T06:15:45;95575.38;;;23.44;80.20
25526;BME280;13424;48.424;11.258;2022-07-26T06:18:11;95574.41;;;23.65;77.82
25526;BME280;13424;48.424;11.258;2022-07-26T06:20:43;95574.00;;;23.93;75.59
25526;BME280;13424;48.424;11.258;2022-07-26T06:23:10;95582.72;;;23.60;74.87
25526;BME280;13424;48.424;11.258;2022-07-26T06:25:36;95583.66;;;23.82;73.22
25526;BME280;13424;48.424;11.258;2022-07-26T06:28:09;95590.59;;;23.71;74.32
25526;BME280;13424;48.424;11.258;2022-07-26T06:30:37;95583.50;;;23.52;74.13
25526;BME280;13424;48.424;11.258;2022-07-26T06:33:05;95589.13;;;23.56;72.54
25526;BME280;13424;48.424;11.258;2022-07-26T06:35:32;95585.78;;;23.42;73.65
25526;BME280;13424;48.424;11.258;2022-07-26T06:38:01;95583.69;;;23.64;72.32
25526;BME280;13424;48.424;11.258;2022-07-26T06:40:27;95578.56;;;23.54;72.94
25526;BME280;13424;48.424;11.258;2022-07-26T06:42:53;95580.16;;;23.73;72.91
25526;BME280;13424;48.424;11.258;2022-07-26T06:45:19;95581.63;;;23.70;73.52
25526;BME280;13424;48.424;11.258;2022-07-26T06:47:45;95575.03;;;23.80;73.15
25526;BME280;13424;48.424;11.258;2022-07-26T06:50:11;95581.09;;;23.77;72.64
25526;BME280;13424;48.424;11.258;2022-07-26T06:52:37;95585.06;;;23.97;71.80
25526;BME280;13424;48.424;11.258;2022-07-26T06:55:05;95589.69;;;24.05;70.22
25526;BME280;13424;48.424;11.258;2022-07-26T06:57:31;95589.13;;;23.73;70.36
25526;BME280;13424;48.424;11.258;2022-07-26T06:59:57;95583.09;;;24.14;70.47
25526;BME280;13424;48.424;11.258;2022-07-26T07:02:23;95589.53;;;24.01;70.12
25526;BME280;13424;48.424;11.258;2022-07-26T07:04:49;95587.34;;;24.33;69.15
25526;BME280;13424;48.424;11.258;2022-07-26T07:07:15;95583.56;;;24.55;67.22
25526;BME280;13424;48.424;11.258;2022-07-26T07:09:41;95591.78;;;24.46;67.27
25526;BME280;13424;48.424;11.258;2022-07-26T07:12:08;95583.16;;;24.94;67.46
25526;BME280;13424;48.424;11.258;2022-07-26T07:14:34;95579.78;;;25.06;65.58
25526;BME280;13424;48.424;11.258;2022-07-26T07:17:08;95577.59;;;25.20;64.79
25526;BME280;13424;48.424;11.258;2022-07-26T07:19:36;95585.88;;;25.45;66.52
25526;BME280;13424;48.424;11.258;2022-07-26T07:22:04;95583.19;;;25.57;63.26
25526;BME280;13424;48.424;11.258;2022-07-26T07:24:31;95593.53;;;25.72;63.99
25526;BME280;13424;48.424;11.258;2022-07-26T07:26:57;95583.94;;;25.03;63.92
25526;BME280;13424;48.424;11.258;2022-07-26T07:29:25;95580.59;;;24.98;64.10
25526;BME280;13424;48.424;11.258;2022-07-26T07:31:51;95590.94;;;24.84;67.22
25526;BME280;13424;48.424;11.258;2022-07-26T07:34:17;95586.16;;;24.81;68.80
25526;BME280;13424;48.424;11.258;2022-07-26T07:36:51;95591.28;;;24.53;67.27
25526;BME280;13424;48.424;11.258;2022-07-26T07:39:18;95586.75;;;24.65;68.84
25526;BME280;13424;48.424;11.258;2022-07-26T07:41:45;95591.16;;;24.49;69.47
25526;BME280;13424;48.424;11.258;2022-07-26T07:44:12;95586.72;;;24.36;69.97
25526;BME280;13424;48.424;11.258;2022-07-26T07:46:38;95592.66;;;24.67;70.11
25526;BME280;13424;48.424;11.258;2022-07-26T07:49:04;95587.78;;;25.02;69.54
25526;BME280;13424;48.424;11.258;2022-07-26T07:51:31;95582.38;;;24.94;70.26
25526;BME280;13424;48.424;11.258;2022-07-26T07:53:58;95585.38;;;25.01;68.82
25526;BME280;13424;48.424;11.258;2022-07-26T07:56:24;95579.00;;;24.97;68.86
25526;BME280;13424;48.424;11.258;2022-07-26T07:58:51;95584.81;;;24.87;69.31
25526;BME280;13424;48.424;11.258;2022-07-26T08:01:17;95586.25;;;25.55;68.67
25526;BME280;13424;48.424;11.258;2022-07-26T08:03:42;95588.66;;;25.57;67.17
25526;BME280;13424;48.424;11.258;2022-07-26T08:06:09;95590.31;;;25.70;67.27
25526;BME280;13424;48.424;11.258;2022-07-26T08:08:41;95596.13;;;26.02;64.83
25526;BME280;13424;48.424;11.258;2022-07-26T08:11:07;95591.28;;;25.86;65.75
25526;BME280;13424;48.424;11.258;2022-07-26T08:13:33;95600.09;;;26.04;66.85
25526;BME280;13424;48.424;11.258;2022-07-26T08:15:59;95603.72;;;25.42;65.14
25526;BME280;13424;48.424;11.258;2022-07-26T08:18:26;95604.28;;;25.69;67.09
25526;BME280;13424;48.424;11.258;2022-07-26T08:20:52;95605.91;;;25.49;67.15
25526;BME280;13424;48.424;11.258;2022-07-26T08:23:20;95610.03;;;25.76;66.22
25526;BME280;13424;48.424;11.258;2022-07-26T08:25:47;95606.97;;;25.77;67.10
25526;BME280;13424;48.424;11.258;2022-07-26T08:28:19;95610.09;;;26.70;64.96
25526;BME280;13424;48.424;11.258;2022-07-26T08:30:45;95607.81;;;26.96;64.80
25526;BME280;13424;48.424;11.258;2022-07-26T08:33:10;95608.94;;;27.20;63.10
25526;BME280;13424;48.424;11.258;2022-07-26T08:35:36;95606.44;;;27.03;61.44
25526;BME280;13424;48.424;11.258;2022-07-26T08:38:02;95597.69;;;26.73;62.91
25526;BME280;13424;48.424;11.258;2022-07-26T08:40:28;95601.38;;;26.19;65.03
25526;BME280;13424;48.424;11.258;2022-07-26T08:42:56;95600.63;;;25.98;64.19
25526;BME280;13424;48.424;11.258;2022-07-26T08:45:28;95604.22;;;26.23;62.51
25526;BME280;13424;48.424;11.258;2022-07-26T08:47:57;95604.56;;;26.21;64.26
25526;BME280;13424;48.424;11.258;2022-07-26T08:50:25;95600.28;;;26.32;64.37
25526;BME280;13424;48.424;11.258;2022-07-26T08:52:52;95610.78;;;26.42;64.08
25526;BME280;13424;48.424;11.258;2022-07-26T08:55:20;95610.31;;;26.53;62.52
25526;BME280;13424;48.424;11.258;2022-07-26T08:57:46;95615.13;;;26.80;62.57
25526;BME280;13424;48.424;11.258;2022-07-26T09:01:07;95607.75;;;27.45;60.99
25526;BME280;13424;48.424;11.258;2022-07-26T09:03:36;95608.69;;;27.25;59.09
25526;BME280;13424;48.424;11.258;2022-07-26T09:06:18;95608.03;;;27.16;59.95
25526;BME280;13424;48.424;11.258;2022-07-26T09:08:50;95609.66;;;27.05;60.48
25526;BME280;13424;48.424;11.258;2022-07-26T09:11:45;95612.56;;;27.36;61.32
25526;BME280;13424;48.424;11.258;2022-07-26T09:14:11;95609.75;;;26.96;63.08
25526;BME280;13424;48.424;11.258;2022-07-26T09:16:37;95618.81;;;26.27;64.48
25526;BME280;13424;48.424;11.258;2022-07-26T09:19:20;95617.19;;;26.71;63.85
25526;BME280;13424;48.424;11.258;2022-07-26T09:21:50;95613.97;;;26.93;64.09
25526;BME280;13424;48.424;11.258;2022-07-26T09:24:41;95619.09;;;26.83;63.86
25526;BME280;13424;48.424;11.258;2022-07-26T09:27:18;95613.84;;;27.14;65.76
25526;BME280;13424;48.424;11.258;2022-07-26T09:30:08;95621.25;;;27.02;65.02
25526;BME280;13424;48.424;11.258;2022-07-26T09:32:34;95622.41;;;26.76;63.70
25526;BME280;13424;48.424;11.258;2022-07-26T09:35:14;95631.00;;;26.17;64.58
25526;BME280;13424;48.424;11.258;2022-07-26T09:41:40;95620.84;;;26.17;64.45
25526;BME280;13424;48.424;11.258;2022-07-26T09:44:24;95619.50;;;25.91;66.69
25526;BME280;13424;48.424;11.258;2022-07-26T09:46:58;95620.53;;;25.86;64.59
25526;BME280;13424;48.424;11.258;2022-07-26T09:49:25;95612.16;;;25.70;64.81
25526;BME280;13424;48.424;11.258;2022-07-26T09:51:53;95619.06;;;26.34;64.95
25526;BME280;13424;48.424;11.258;2022-07-26T09:56:54;95618.63;;;26.93;64.17
25526;BME280;13424;48.424;11.258;2022-07-26T10:00:05;95615.44;;;26.91;63.71
25526;BME280;13424;48.424;11.258;2022-07-26T10:02:32;95611.69;;;26.83;63.38
25526;BME280;13424;48.424;11.258;2022-07-26T10:04:58;95614.44;;;26.59;62.98
25526;BME280;13424;48.424;11.258;2022-07-26T10:07:24;95614.16;;;27.77;61.27
25526;BME280;13424;48.424;11.258;2022-07-26T10:10:17;95612.91;;;27.75;60.38
25526;BME280;13424;48.424;11.258;2022-07-26T10:12:44;95608.38;;;27.67;60.71
25526;BME280;13424;48.424;11.258;2022-07-26T10:15:46;95601.41;;;27.29;60.78
25526;BME280;13424;48.424;11.258;2022-07-26T10:21:27;95601.84;;;28.15;57.74
25526;BME280;13424;48.424;11.258;2022-07-26T10:24:00;95607.97;;;28.24;55.96
25526;BME280;13424;48.424;11.258;2022-07-26T10:34:34;95598.91;;;29.38;54.42
25526;BME280;13424;48.424;11.258;2022-07-26T10:37:07;95599.94;;;29.30;53.96
25526;BME280;13424;48.424;11.258;2022-07-26T10:39:35;95598.81;;;29.15;55.20
25526;BME280;13424;48.424;11.258;2022-07-26T10:42:10;95595.63;;;29.48;53.58
25526;BME280;13424;48.424;11.258;2022-07-26T10:44:41;95596.75;;;29.63;54.04
25526;BME280;13424;48.424;11.258;2022-07-26T10:48:21;95586.28;;;28.98;54.31
25526;BME280;13424;48.424;11.258;2022-07-26T10:50:52;95590.84;;;29.45;54.04
25526;BME280;13424;48.424;11.258;2022-07-26T10:54:24;95593.09;;;28.88;54.59
25526;BME280;13424;48.424;11.258;2022-07-26T10:56:50;95592.56;;;28.20;55.85
25526;BME280;13424;48.424;11.258;2022-07-26T10:59:30;95592.81;;;27.71;56.17
25526;BME280;13424;48.424;11.258;2022-07-26T11:01:57;95592.22;;;28.05;55.21
25526;BME280;13424;48.424;11.258;2022-07-26T11:04:24;95581.78;;;27.67;56.89
25526;BME280;13424;48.424;11.258;2022-07-26T11:06:50;95595.06;;;26.64;56.95
25526;BME280;13424;48.424;11.258;2022-07-26T11:09:17;95591.41;;;26.96;56.59
25526;BME280;13424;48.424;11.258;2022-07-26T11:11:45;95587.19;;;27.11;55.36
25526;BME280;13424;48.424;11.258;2022-07-26T11:14:15;95587.41;;;27.18;54.73
25526;BME280;13424;48.424;11.258;2022-07-26T11:16:46;95595.41;;;27.51;55.82
25526;BME280;13424;48.424;11.258;2022-07-26T11:19:23;95600.25;;;27.30;56.88
25526;BME280;13424;48.424;11.258;2022-07-26T11:21:59;95593.91;;;26.89;57.17
25526;BME280;13424;48.424;11.258;2022-07-26T11:24:26;95601.22;;;26.61;56.89
25526;BME280;13424;48.424;11.258;2022-07-26T11:26:53;95596.09;;;26.47;56.34
25526;BME280;13424;48.424;11.258;2022-07-26T11:29:29;95594.25;;;26.88;56.39
25526;BME280;13424;48.424;11.258;2022-07-26T11:31:55;95602.81;;;26.74;57.28
25526;BME280;13424;48.424;11.258;2022-07-26T11:34:24;95607.13;;;26.75;56.79
25526;BME280;13424;48.424;11.258;2022-07-26T11:36:56;95603.94;;;26.97;57.56
25526;BME280;13424;48.424;11.258;2022-07-26T11:39:29;95594.19;;;27.65;57.97
25526;BME280;13424;48.424;11.258;2022-07-26T11:42:00;95597.91;;;27.85;57.56
25526;BME280;13424;48.424;11.258;2022-07-26T11:48:21;95577.91;;;27.68;57.49
25526;BME280;13424;48.424;11.258;2022-07-26T11:50:47;95587.75;;;27.85;57.37
25526;BME280;13424;48.424;11.258;2022-07-26T11:53:37;95596.28;;;28.12;57.18
25526;BME280;13424;48.424;11.258;2022-07-26T11:56:21;95584.47;;;28.39;58.16
25526;BME280;13424;48.424;11.258;2022-07-26T11:58:51;95582.69;;;27.87;55.38
25526;BME280;13424;48.424;11.258;2022-07-26T12:01:21;95574.25;;;29.03;54.93
25526;BME280;13424;48.424;11.258;2022-07-26T12:03:52;95561.06;;;29.47;54.54
25526;BME280;13424;48.424;11.258;2022-07-26T12:06:23;95571.34;;;29.50;53.37
25526;BME280;13424;48.424;11.258;2022-07-26T12:08:57;95566.38;;;29.20;53.50
25526;BME280;13424;48.424;11.258;2022-07-26T12:11:36;95565.50;;;28.65;53.44
25526;BME280;13424;48.424;11.258;2022-07-26T12:14:04;95576.22;;;29.22;53.93
25526;BME280;13424;48.424;11.258;2022-07-26T12:16:44;95573.41;;;29.18;53.13
25526;BME280;13424;48.424;11.258;2022-07-26T12:19:25;95565.25;;;29.41;53.64
25526;BME280;13424;48.424;11.258;2022-07-26T12:22:14;95555.53;;;30.05;52.66
25526;BME280;13424;48.424;11.258;2022-07-26T12:27:32;95547.63;;;30.72;49.02
25526;BME280;13424;48.424;11.258;2022-07-26T12:32:41;95550.13;;;28.61;49.78
25526;BME280;13424;48.424;11.258;2022-07-26T12:35:12;95555.19;;;28.43;51.20
25526;BME280;13424;48.424;11.258;2022-07-26T12:40:19;95549.22;;;28.09;50.40
25526;BME280;13424;48.424;11.258;2022-07-26T12:45:29;95539.41;;;28.08;49.28
25526;BME280;13424;48.424;11.258;2022-07-26T12:47:57;95544.84;;;28.52;50.46
25526;BME280;13424;48.424;11.258;2022-07-26T12:50:27;95540.22;;;28.56;49.60
25526;BME280;13424;48.424;11.258;2022-07-26T12:53:06;95534.59;;;28.33;50.36
25526;BME280;13424;48.424;11.258;2022-07-26T12:55:34;95539.81;;;29.25;49.38
25526;BME280;13424;48.424;11.258;2022-07-26T12:58:00;95540.53;;;29.41;48.63
25526;BME280;13424;48.424;11.258;2022-07-26T13:00:27;95521.59;;;29.16;48.18
25526;BME280;13424;48.424;11.258;2022-07-26T13:02:53;95538.06;;;29.36;47.52
25526;BME280;13424;48.424;11.258;2022-07-26T13:05:20;95533.47;;;29.59;47.69
25526;BME280;13424;48.424;11.258;2022-07-26T13:07:46;95538.81;;;29.52;49.14
25526;BME280;13424;48.424;11.258;2022-07-26T13:10:12;95536.03;;;28.94;50.09
25526;BME280;13424;48.424;11.258;2022-07-26T13:12:39;95533.91;;;28.72;48.99
25526;BME280;13424;48.424;11.258;2022-07-26T13:15:06;95538.56;;;28.87;50.39
25526;BME280;13424;48.424;11.258;2022-07-26T13:17:32;95533.97;;;28.75;48.58
25526;BME280;13424;48.424;11.258;2022-07-26T13:19:58;95532.88;;;28.29;44.79
25526;BME280;13424;48.424;11.258;2022-07-26T13:22:24;95532.91;;;29.15;44.79
25526;BME280;13424;48.424;11.258;2022-07-26T13:24:50;95528.81;;;29.44;47.22
25526;BME280;13424;48.424;11.258;2022-07-26T13:27:16;95532.44;;;29.48;45.32
25526;BME280;13424;48.424;11.258;2022-07-26T13:29:43;95516.84;;;29.52;45.99
25526;BME280;13424;48.424;11.258;2022-07-26T13:32:09;95525.22;;;29.40;44.70
25526;BME280;13424;48.424;11.258;2022-07-26T13:34:35;95526.72;;;29.76;44.46
25526;BME280;13424;48.424;11.258;2022-07-26T13:41:27;95526.66;;;29.53;50.16
25526;BME280;13424;48.424;11.258;2022-07-26T13:43:54;95530.59;;;28.82;54.44
25526;BME280;13424;48.424;11.258;2022-07-26T13:46:21;95526.25;;;28.97;53.76